sensor_id;sensor_type;location;lat;lon;timestamp;P1;durP1;ratioP1;P2;durP2;ratioP2
38615;SDS011;24370;51.986;4.666;2022-08-19T00:01:13;12.90;;;10.18;;
38615;SDS011;24370;51.986;4.666;2022-08-19T00:03:39;14.18;;;11.10;;
38615;SDS011;24370;51.986;4.666;2022-08-19T00:06:04;13.80;;;10.50;;
38615;SDS011;24370;51.986;4.666;2022-08-19T00:08:29;12.95;;;9.98;;
38615;SDS011;24370;51.986;4.666;2022-08-19T00:10:55;17.10;;;11.45;;
38615;SDS011;24370;51.986;4.666;2022-08-19T00:13:21;13.88;;;10.75;;
38615;SDS011;24370;51.986;4.666;2022-08-19T00:15:46;16.15;;;10.20;;
38615;SDS011;24370;51.986;4.666;2022-08-19T00:18:11;15.07;;;10.68;;
38615;SDS011;24370;51.986;4.666;2022-08-19T00:20:37;15.38;;;10.60;;
38615;SDS011;24370;51.986;4.666;2022-08-19T00:23:05;12.45;;;10.50;;
38615;SDS011;24370;51.986;4.666;2022-08-19T00:25:31;14.15;;;11.40;;
38615;SDS011;24370;51.986;4.666;2022-08-19T00:27:57;14.82;;;10.75;;
38615;SDS011;24370;51.986;4.666;2022-08-19T00:30:24;16.45;;;11.32;;
38615;SDS011;24370;51.986;4.666;2022-08-19T00:32:49;16.08;;;10.77;;
38615;SDS011;24370;51.986;4.666;2022-08-19T00:35:15;19.15;;;11.82;;
38615;SDS011;24370;51.986;4.666;2022-08-19T00:37:42;15.77;;;10.85;;
38615;SDS011;24370;51.986;4.666;2022-08-19T00:40:08;15.40;;;11.80;;
38615;SDS011;24370;51.986;4.666;2022-08-19T00:42:35;15.98;;;11.90;;
38615;SDS011;24370;51.986;4.666;2022-08-19T00:45:00;14.50;;;11.85;;
38615;SDS011;24370;51.986;4.666;2022-08-19T00:47:26;16.80;;;11.75;;
38615;SDS011;24370;51.986;4.666;2022-08-19T00:49:53;16.17;;;10.75;;
38615;SDS011;24370;51.986;4.666;2022-08-19T00:52:23;16.20;;;11.57;;
38615;SDS011;24370;51.986;4.666;2022-08-19T00:54:54;16.65;;;10.90;;
38615;SDS011;24370;51.986;4.666;2022-08-19T00:57:22;14.68;;;10.65;;
38615;SDS011;24370;51.986;4.666;2022-08-19T00:59:52;13.45;;;10.57;;
38615;SDS011;24370;51.986;4.666;2022-08-19T01:02:20;11.48;;;10.23;;
38615;SDS011;24370;51.986;4.666;2022-08-19T01:04:46;13.45;;;10.52;;
38615;SDS011;24370;51.986;4.666;2022-08-19T01:07:11;11.45;;;9.13;;
38615;SDS011;24370;51.986;4.666;2022-08-19T01:09:37;13.27;;;10.13;;
38615;SDS011;24370;51.986;4.666;2022-08-19T01:12:02;14.13;;;10.13;;
38615;SDS011;24370;51.986;4.666;2022-08-19T01:14:29;17.67;;;9.90;;
38615;SDS011;24370;51.986;4.666;2022-08-19T01:16:55;12.55;;;9.43;;
38615;SDS011;24370;51.986;4.666;2022-08-19T01:19:29;11.60;;;9.40;;
38615;SDS011;24370;51.986;4.666;2022-08-19T01:22:06;12.90;;;9.88;;
38615;SDS011;24370;51.986;4.666;2022-08-19T01:24:51;13.45;;;9.23;;
38615;SDS011;24370;51.986;4.666;2022-08-19T01:27:17;13.70;;;8.50;;
38615;SDS011;24370;51.986;4.666;2022-08-19T01:29:43;11.77;;;8.65;;
38615;SDS011;24370;51.986;4.666;2022-08-19T01:32:14;11.45;;;8.77;;
38615;SDS011;24370;51.986;4.666;2022-08-19T01:34:41;11.15;;;8.77;;
38615;SDS011;24370;51.986;4.666;2022-08-19T01:37:12;15.73;;;8.75;;
38615;SDS011;24370;51.986;4.666;2022-08-19T01:39:39;9.50;;;7.85;;
38615;SDS011;24370;51.986;4.666;2022-08-19T01:42:06;9.45;;;8.27;;
38615;SDS011;24370;51.986;4.666;2022-08-19T01:44:33;15.68;;;8.20;;
38615;SDS011;24370;51.986;4.666;2022-08-19T01:47:01;11.00;;;8.57;;
38615;SDS011;24370;51.986;4.666;2022-08-19T01:49:26;12.65;;;8.13;;
38615;SDS011;24370;51.986;4.666;2022-08-19T01:51:52;13.07;;;8.73;;
38615;SDS011;24370;51.986;4.666;2022-08-19T01:54:19;11.55;;;8.18;;
38615;SDS011;24370;51.986;4.666;2022-08-19T01:56:46;11.07;;;8.00;;
38615;SDS011;24370;51.986;4.666;2022-08-19T01:59:12;13.40;;;8.70;;
38615;SDS011;24370;51.986;4.666;2022-08-19T02:01:41;10.48;;;8.23;;
38615;SDS011;24370;51.986;4.666;2022-08-19T02:04:06;11.02;;;8.73;;
38615;SDS011;24370;51.986;4.666;2022-08-19T02:06:31;12.07;;;8.60;;
38615;SDS011;24370;51.986;4.666;2022-08-19T02:08:58;13.95;;;8.45;;
38615;SDS011;24370;51.986;4.666;2022-08-19T02:11:25;12.02;;;7.95;;
38615;SDS011;24370;51.986;4.666;2022-08-19T02:13:53;10.75;;;8.27;;
38615;SDS011;24370;51.986;4.666;2022-08-19T02:16:19;15.20;;;8.15;;
38615;SDS011;24370;51.986;4.666;2022-08-19T02:18:45;11.48;;;7.63;;
38615;SDS011;24370;51.986;4.666;2022-08-19T02:21:13;10.73;;;7.93;;
38615;SDS011;24370;51.986;4.666;2022-08-19T02:23:42;12.48;;;8.60;;
38615;SDS011;24370;51.986;4.666;2022-08-19T02:26:08;14.65;;;8.77;;
38615;SDS011;24370;51.986;4.666;2022-08-19T02:28:34;13.05;;;10.75;;
38615;SDS011;24370;51.986;4.666;2022-08-19T02:30:59;13.73;;;10.80;;
38615;SDS011;24370;51.986;4.666;2022-08-19T02:33:26;13.93;;;10.57;;
38615;SDS011;24370;51.986;4.666;2022-08-19T02:35:52;15.57;;;11.02;;
38615;SDS011;24370;51.986;4.666;2022-08-19T02:38:17;15.32;;;11.52;;
38615;SDS011;24370;51.986;4.666;2022-08-19T02:41:03;17.67;;;11.07;;
38615;SDS011;24370;51.986;4.666;2022-08-19T02:43:32;15.43;;;10.45;;
38615;SDS011;24370;51.986;4.666;2022-08-19T02:46:24;15.20;;;10.90;;
38615;SDS011;24370;51.986;4.666;2022-08-19T02:48:50;15.73;;;11.18;;
38615;SDS011;24370;51.986;4.666;2022-08-19T02:51:18;19.45;;;12.57;;
38615;SDS011;24370;51.986;4.666;2022-08-19T02:53:48;17.13;;;12.65;;
38615;SDS011;24370;51.986;4.666;2022-08-19T02:56:14;18.15;;;13.38;;
38615;SDS011;24370;51.986;4.666;2022-08-19T02:58:39;16.98;;;12.77;;
38615;SDS011;24370;51.986;4.666;2022-08-19T03:01:05;25.17;;;15.15;;
38615;SDS011;24370;51.986;4.666;2022-08-19T03:03:31;19.40;;;14.68;;
38615;SDS011;24370;51.986;4.666;2022-08-19T03:06:11;23.25;;;15.27;;
38615;SDS011;24370;51.986;4.666;2022-08-19T03:08:38;24.60;;;15.90;;
38615;SDS011;24370;51.986;4.666;2022-08-19T03:11:06;29.75;;;19.83;;
38615;SDS011;24370;51.986;4.666;2022-08-19T03:13:36;35.92;;;21.02;;
38615;SDS011;24370;51.986;4.666;2022-08-19T03:16:03;37.38;;;22.70;;
38615;SDS011;24370;51.986;4.666;2022-08-19T03:18:29;33.33;;;22.08;;
38615;SDS011;24370;51.986;4.666;2022-08-19T03:20:55;41.03;;;24.52;;
38615;SDS011;24370;51.986;4.666;2022-08-19T03:23:20;37.60;;;23.40;;
38615;SDS011;24370;51.986;4.666;2022-08-19T03:25:48;36.90;;;22.65;;
38615;SDS011;24370;51.986;4.666;2022-08-19T03:28:15;35.50;;;22.52;;
38615;SDS011;24370;51.986;4.666;2022-08-19T03:30:42;32.25;;;20.40;;
38615;SDS011;24370;51.986;4.666;2022-08-19T03:33:19;26.85;;;17.58;;
38615;SDS011;24370;51.986;4.666;2022-08-19T03:35:45;30.98;;;18.65;;
38615;SDS011;24370;51.986;4.666;2022-08-19T03:38:10;26.17;;;18.05;;
38615;SDS011;24370;51.986;4.666;2022-08-19T03:40:36;34.75;;;19.02;;
38615;SDS011;24370;51.986;4.666;2022-08-19T03:43:02;27.17;;;17.75;;
38615;SDS011;24370;51.986;4.666;2022-08-19T03:45:27;30.00;;;18.73;;
38615;SDS011;24370;51.986;4.666;2022-08-19T03:47:53;28.67;;;18.35;;
38615;SDS011;24370;51.986;4.666;2022-08-19T03:50:18;29.75;;;18.40;;
38615;SDS011;24370;51.986;4.666;2022-08-19T03:52:48;28.58;;;19.45;;
38615;SDS011;24370;51.986;4.666;2022-08-19T03:55:17;34.63;;;19.83;;
38615;SDS011;24370;51.986;4.666;2022-08-19T03:57:43;33.47;;;20.17;;
38615;SDS011;24370;51.986;4.666;2022-08-19T04:00:10;32.63;;;20.67;;
38615;SDS011;24370;51.986;4.666;2022-08-19T04:02:36;34.40;;;21.38;;
38615;SDS011;24370;51.986;4.666;2022-08-19T04:05:02;37.15;;;22.05;;
38615;SDS011;24370;51.986;4.666;2022-08-19T04:07:27;34.35;;;22.33;;
38615;SDS011;24370;51.986;4.666;2022-08-19T04:09:53;35.65;;;22.25;;
38615;SDS011;24370;51.986;4.666;2022-08-19T04:12:18;36.90;;;23.35;;
38615;SDS011;24370;51.986;4.666;2022-08-19T04:14:45;35.70;;;22.98;;
38615;SDS011;24370;51.986;4.666;2022-08-19T04:17:11;39.05;;;23.15;;
38615;SDS011;24370;51.986;4.666;2022-08-19T04:19:39;41.30;;;24.00;;
38615;SDS011;24370;51.986;4.666;2022-08-19T04:22:06;39.45;;;23.88;;
38615;SDS011;24370;51.986;4.666;2022-08-19T04:24:32;43.15;;;25.75;;
38615;SDS011;24370;51.986;4.666;2022-08-19T04:26:59;49.17;;;26.02;;
38615;SDS011;24370;51.986;4.666;2022-08-19T04:29:26;49.58;;;26.65;;
38615;SDS011;24370;51.986;4.666;2022-08-19T04:31:52;55.55;;;28.67;;
38615;SDS011;24370;51.986;4.666;2022-08-19T04:34:19;58.28;;;30.60;;
38615;SDS011;24370;51.986;4.666;2022-08-19T04:36:47;59.03;;;29.95;;
38615;SDS011;24370;51.986;4.666;2022-08-19T04:39:14;63.72;;;32.50;;
38615;SDS011;24370;51.986;4.666;2022-08-19T04:41:41;77.90;;;36.22;;
38615;SDS011;24370;51.986;4.666;2022-08-19T04:44:26;75.95;;;37.03;;
38615;SDS011;24370;51.986;4.666;2022-08-19T04:46:55;84.07;;;38.63;;
38615;SDS011;24370;51.986;4.666;2022-08-19T04:49:21;85.93;;;38.47;;
38615;SDS011;24370;51.986;4.666;2022-08-19T04:51:48;84.65;;;38.67;;
38615;SDS011;24370;51.986;4.666;2022-08-19T04:54:15;88.55;;;38.03;;
38615;SDS011;24370;51.986;4.666;2022-08-19T04:56:41;83.03;;;38.33;;
38615;SDS011;24370;51.986;4.666;2022-08-19T04:59:07;84.65;;;38.88;;
38615;SDS011;24370;51.986;4.666;2022-08-19T05:01:33;79.43;;;36.72;;
38615;SDS011;24370;51.986;4.666;2022-08-19T05:03:59;84.40;;;39.47;;
38615;SDS011;24370;51.986;4.666;2022-08-19T05:06:26;78.55;;;36.35;;
38615;SDS011;24370;51.986;4.666;2022-08-19T05:08:53;84.60;;;37.75;;
38615;SDS011;24370;51.986;4.666;2022-08-19T05:11:23;88.93;;;37.05;;
38615;SDS011;24370;51.986;4.666;2022-08-19T05:13:51;81.13;;;37.47;;
38615;SDS011;24370;51.986;4.666;2022-08-19T05:16:17;83.80;;;37.28;;
38615;SDS011;24370;51.986;4.666;2022-08-19T05:18:44;75.57;;;35.45;;
38615;SDS011;24370;51.986;4.666;2022-08-19T05:21:29;79.10;;;35.40;;
38615;SDS011;24370;51.986;4.666;2022-08-19T05:24:13;81.05;;;36.63;;
38615;SDS011;24370;51.986;4.666;2022-08-19T05:26:40;77.47;;;35.38;;
38615;SDS011;24370;51.986;4.666;2022-08-19T05:29:08;74.07;;;32.67;;
38615;SDS011;24370;51.986;4.666;2022-08-19T05:31:34;71.88;;;33.42;;
38615;SDS011;24370;51.986;4.666;2022-08-19T05:34:00;71.13;;;33.47;;
38615;SDS011;24370;51.986;4.666;2022-08-19T05:36:27;73.18;;;34.67;;
38615;SDS011;24370;51.986;4.666;2022-08-19T05:38:54;64.38;;;32.35;;
38615;SDS011;24370;51.986;4.666;2022-08-19T05:41:22;68.18;;;34.03;;
38615;SDS011;24370;51.986;4.666;2022-08-19T05:43:55;63.08;;;31.02;;
38615;SDS011;24370;51.986;4.666;2022-08-19T05:46:22;83.55;;;33.83;;
38615;SDS011;24370;51.986;4.666;2022-08-19T05:48:49;70.53;;;35.50;;
38615;SDS011;24370;51.986;4.666;2022-08-19T05:51:14;70.40;;;32.95;;
38615;SDS011;24370;51.986;4.666;2022-08-19T05:53:41;65.13;;;32.25;;
38615;SDS011;24370;51.986;4.666;2022-08-19T05:56:08;71.85;;;33.03;;
38615;SDS011;24370;51.986;4.666;2022-08-19T05:58:36;68.43;;;32.40;;
38615;SDS011;24370;51.986;4.666;2022-08-19T06:01:02;67.47;;;32.95;;
38615;SDS011;24370;51.986;4.666;2022-08-19T06:03:33;73.68;;;33.00;;
38615;SDS011;24370;51.986;4.666;2022-08-19T06:06:02;65.38;;;32.63;;
38615;SDS011;24370;51.986;4.666;2022-08-19T06:08:28;58.47;;;31.60;;
38615;SDS011;24370;51.986;4.666;2022-08-19T06:10:54;63.03;;;31.58;;
38615;SDS011;24370;51.986;4.666;2022-08-19T06:13:20;58.25;;;29.55;;
38615;SDS011;24370;51.986;4.666;2022-08-19T06:15:47;61.80;;;30.85;;
38615;SDS011;24370;51.986;4.666;2022-08-19T06:18:14;61.05;;;30.70;;
38615;SDS011;24370;51.986;4.666;2022-08-19T06:20:40;66.63;;;31.55;;
38615;SDS011;24370;51.986;4.666;2022-08-19T06:23:06;63.05;;;31.63;;
38615;SDS011;24370;51.986;4.666;2022-08-19T06:25:32;54.20;;;31.33;;
38615;SDS011;24370;51.986;4.666;2022-08-19T06:27:57;62.10;;;30.55;;
38615;SDS011;24370;51.986;4.666;2022-08-19T06:30:23;53.10;;;30.55;;
38615;SDS011;24370;51.986;4.666;2022-08-19T06:32:48;60.90;;;29.83;;
38615;SDS011;24370;51.986;4.666;2022-08-19T06:35:14;49.38;;;28.48;;
38615;SDS011;24370;51.986;4.666;2022-08-19T06:37:39;68.20;;;32.05;;
38615;SDS011;24370;51.986;4.666;2022-08-19T06:40:06;50.85;;;29.17;;
38615;SDS011;24370;51.986;4.666;2022-08-19T06:42:33;49.83;;;26.95;;
38615;SDS011;24370;51.986;4.666;2022-08-19T06:44:59;46.08;;;28.23;;
38615;SDS011;24370;51.986;4.666;2022-08-19T06:47:28;50.63;;;26.25;;
38615;SDS011;24370;51.986;4.666;2022-08-19T06:49:55;50.05;;;26.55;;
38615;SDS011;24370;51.986;4.666;2022-08-19T06:52:37;47.67;;;26.67;;
38615;SDS011;24370;51.986;4.666;2022-08-19T06:55:04;45.95;;;25.95;;
38615;SDS011;24370;51.986;4.666;2022-08-19T06:57:30;43.15;;;25.38;;
38615;SDS011;24370;51.986;4.666;2022-08-19T06:59:57;40.35;;;24.60;;
38615;SDS011;24370;51.986;4.666;2022-08-19T07:02:25;43.42;;;24.60;;
38615;SDS011;24370;51.986;4.666;2022-08-19T07:04:51;40.70;;;23.27;;
38615;SDS011;24370;51.986;4.666;2022-08-19T07:07:18;42.53;;;24.00;;
38615;SDS011;24370;51.986;4.666;2022-08-19T07:09:44;44.05;;;23.48;;
38615;SDS011;24370;51.986;4.666;2022-08-19T07:12:11;38.97;;;22.85;;
38615;SDS011;24370;51.986;4.666;2022-08-19T07:14:38;35.67;;;22.77;;
38615;SDS011;24370;51.986;4.666;2022-08-19T07:17:05;43.38;;;22.48;;
38615;SDS011;24370;51.986;4.666;2022-08-19T07:19:32;40.63;;;23.10;;
38615;SDS011;24370;51.986;4.666;2022-08-19T07:21:58;34.88;;;21.45;;
38615;SDS011;24370;51.986;4.666;2022-08-19T07:24:26;41.17;;;23.77;;
38615;SDS011;24370;51.986;4.666;2022-08-19T07:26:53;37.13;;;23.35;;
38615;SDS011;24370;51.986;4.666;2022-08-19T07:29:22;42.63;;;23.60;;
38615;SDS011;24370;51.986;4.666;2022-08-19T07:31:52;35.85;;;20.85;;
38615;SDS011;24370;51.986;4.666;2022-08-19T07:34:17;36.00;;;20.58;;
38615;SDS011;24370;51.986;4.666;2022-08-19T07:36:44;27.65;;;19.10;;
38615;SDS011;24370;51.986;4.666;2022-08-19T07:39:19;34.25;;;20.30;;
38615;SDS011;24370;51.986;4.666;2022-08-19T07:41:48;30.33;;;20.35;;
38615;SDS011;24370;51.986;4.666;2022-08-19T07:44:15;31.65;;;19.42;;
38615;SDS011;24370;51.986;4.666;2022-08-19T07:46:42;28.75;;;18.40;;
38615;SDS011;24370;51.986;4.666;2022-08-19T07:49:09;30.60;;;19.30;;
38615;SDS011;24370;51.986;4.666;2022-08-19T07:54:07;32.05;;;18.40;;
38615;SDS011;24370;51.986;4.666;2022-08-19T07:56:32;31.90;;;18.45;;
38615;SDS011;24370;51.986;4.666;2022-08-19T07:58:57;29.13;;;20.00;;
38615;SDS011;24370;51.986;4.666;2022-08-19T08:01:24;29.48;;;18.67;;
38615;SDS011;24370;51.986;4.666;2022-08-19T08:03:55;37.60;;;20.85;;
38615;SDS011;24370;51.986;4.666;2022-08-19T08:06:40;31.33;;;19.13;;
38615;SDS011;24370;51.986;4.666;2022-08-19T08:09:26;31.60;;;19.95;;
38615;SDS011;24370;51.986;4.666;2022-08-19T08:11:56;31.45;;;21.20;;
38615;SDS011;24370;51.986;4.666;2022-08-19T08:14:26;38.13;;;21.42;;
38615;SDS011;24370;51.986;4.666;2022-08-19T08:16:58;43.70;;;23.58;;
38615;SDS011;24370;51.986;4.666;2022-08-19T08:19:24;38.53;;;22.90;;
38615;SDS011;24370;51.986;4.666;2022-08-19T08:21:53;40.75;;;23.55;;
38615;SDS011;24370;51.986;4.666;2022-08-19T08:24:21;35.55;;;23.77;;
38615;SDS011;24370;51.986;4.666;2022-08-19T08:26:46;33.55;;;22.50;;
38615;SDS011;24370;51.986;4.666;2022-08-19T08:29:12;37.53;;;22.27;;
38615;SDS011;24370;51.986;4.666;2022-08-19T08:31:39;32.60;;;21.08;;
38615;SDS011;24370;51.986;4.666;2022-08-19T08:34:05;35.38;;;21.70;;
38615;SDS011;24370;51.986;4.666;2022-08-19T08:36:31;44.10;;;21.40;;
38615;SDS011;24370;51.986;4.666;2022-08-19T08:38:58;40.17;;;22.48;;
38615;SDS011;24370;51.986;4.666;2022-08-19T08:43:53;30.95;;;21.98;;
38615;SDS011;24370;51.986;4.666;2022-08-19T08:51:59;35.13;;;19.70;;
38615;SDS011;24370;51.986;4.666;2022-08-19T08:54:30;30.83;;;19.08;;
38615;SDS011;24370;51.986;4.666;2022-08-19T08:57:15;33.80;;;19.02;;
38615;SDS011;24370;51.986;4.666;2022-08-19T08:59:48;30.40;;;18.88;;
38615;SDS011;24370;51.986;4.666;2022-08-19T09:02:18;30.40;;;17.27;;
38615;SDS011;24370;51.986;4.666;2022-08-19T09:04:44;33.67;;;18.30;;
38615;SDS011;24370;51.986;4.666;2022-08-19T09:07:14;30.88;;;16.70;;
38615;SDS011;24370;51.986;4.666;2022-08-19T09:10:02;25.25;;;15.27;;
38615;SDS011;24370;51.986;4.666;2022-08-19T09:12:44;21.65;;;14.43;;
38615;SDS011;24370;51.986;4.666;2022-08-19T09:15:22;26.42;;;14.25;;
38615;SDS011;24370;51.986;4.666;2022-08-19T09:18:00;21.30;;;13.23;;
38615;SDS011;24370;51.986;4.666;2022-08-19T09:20:27;17.35;;;13.15;;
38615;SDS011;24370;51.986;4.666;2022-08-19T09:22:53;25.92;;;13.55;;
38615;SDS011;24370;51.986;4.666;2022-08-19T09:25:20;19.77;;;12.43;;
38615;SDS011;24370;51.986;4.666;2022-08-19T09:27:47;26.63;;;13.45;;
38615;SDS011;24370;51.986;4.666;2022-08-19T09:30:17;20.60;;;11.52;;
38615;SDS011;24370;51.986;4.666;2022-08-19T09:32:49;15.00;;;11.90;;
38615;SDS011;24370;51.986;4.666;2022-08-19T09:35:18;18.75;;;12.05;;
38615;SDS011;24370;51.986;4.666;2022-08-19T09:37:47;18.23;;;11.10;;
38615;SDS011;24370;51.986;4.666;2022-08-19T09:40:13;19.20;;;11.18;;
38615;SDS011;24370;51.986;4.666;2022-08-19T09:42:39;15.68;;;10.65;;
38615;SDS011;24370;51.986;4.666;2022-08-19T09:45:04;17.25;;;11.18;;
38615;SDS011;24370;51.986;4.666;2022-08-19T09:47:30;19.65;;;12.40;;
38615;SDS011;24370;51.986;4.666;2022-08-19T09:49:57;19.48;;;11.65;;
38615;SDS011;24370;51.986;4.666;2022-08-19T09:52:22;20.05;;;10.30;;
38615;SDS011;24370;51.986;4.666;2022-08-19T09:54:51;17.15;;;10.32;;
38615;SDS011;24370;51.986;4.666;2022-08-19T09:57:17;17.25;;;11.27;;
38615;SDS011;24370;51.986;4.666;2022-08-19T09:59:42;17.38;;;10.80;;
38615;SDS011;24370;51.986;4.666;2022-08-19T10:02:09;18.05;;;11.55;;
38615;SDS011;24370;51.986;4.666;2022-08-19T10:04:35;17.40;;;11.20;;
38615;SDS011;24370;51.986;4.666;2022-08-19T10:07:19;17.67;;;10.77;;
38615;SDS011;24370;51.986;4.666;2022-08-19T10:09:44;21.17;;;11.65;;
38615;SDS011;24370;51.986;4.666;2022-08-19T10:12:10;15.60;;;10.77;;
38615;SDS011;24370;51.986;4.666;2022-08-19T10:14:36;19.27;;;11.32;;
38615;SDS011;24370;51.986;4.666;2022-08-19T10:17:03;18.45;;;11.80;;
38615;SDS011;24370;51.986;4.666;2022-08-19T10:19:28;19.33;;;12.18;;
38615;SDS011;24370;51.986;4.666;2022-08-19T10:22:02;19.83;;;12.57;;
38615;SDS011;24370;51.986;4.666;2022-08-19T10:24:29;19.05;;;11.68;;
38615;SDS011;24370;51.986;4.666;2022-08-19T10:26:55;18.85;;;9.93;;
38615;SDS011;24370;51.986;4.666;2022-08-19T10:29:21;22.60;;;10.93;;
38615;SDS011;24370;51.986;4.666;2022-08-19T10:31:47;16.33;;;8.70;;
38615;SDS011;24370;51.986;4.666;2022-08-19T10:34:12;14.73;;;8.93;;
38615;SDS011;24370;51.986;4.666;2022-08-19T10:36:38;13.82;;;9.05;;
38615;SDS011;24370;51.986;4.666;2022-08-19T10:39:05;10.30;;;7.55;;
38615;SDS011;24370;51.986;4.666;2022-08-19T10:41:33;11.70;;;7.13;;
38615;SDS011;24370;51.986;4.666;2022-08-19T10:44:02;15.75;;;6.80;;
38615;SDS011;24370;51.986;4.666;2022-08-19T10:46:30;11.50;;;6.50;;
38615;SDS011;24370;51.986;4.666;2022-08-19T10:48:57;9.60;;;6.38;;
38615;SDS011;24370;51.986;4.666;2022-08-19T10:51:24;10.60;;;5.88;;
38615;SDS011;24370;51.986;4.666;2022-08-19T10:54:08;8.30;;;5.18;;
38615;SDS011;24370;51.986;4.666;2022-08-19T10:56:34;8.38;;;6.00;;
38615;SDS011;24370;51.986;4.666;2022-08-19T10:59:23;10.20;;;5.15;;
38615;SDS011;24370;51.986;4.666;2022-08-19T11:01:52;13.35;;;4.93;;
38615;SDS011;24370;51.986;4.666;2022-08-19T11:04:19;8.70;;;4.40;;
38615;SDS011;24370;51.986;4.666;2022-08-19T11:06:46;10.38;;;4.43;;
38615;SDS011;24370;51.986;4.666;2022-08-19T11:09:13;8.48;;;3.97;;
38615;SDS011;24370;51.986;4.666;2022-08-19T11:11:40;9.13;;;3.72;;
38615;SDS011;24370;51.986;4.666;2022-08-19T11:14:12;7.85;;;3.47;;
38615;SDS011;24370;51.986;4.666;2022-08-19T11:16:40;4.82;;;3.47;;
38615;SDS011;24370;51.986;4.666;2022-08-19T11:19:07;6.38;;;3.20;;
38615;SDS011;24370;51.986;4.666;2022-08-19T11:21:36;8.25;;;3.42;;
38615;SDS011;24370;51.986;4.666;2022-08-19T11:24:10;8.73;;;3.90;;
38615;SDS011;24370;51.986;4.666;2022-08-19T11:26:37;9.00;;;3.88;;
38615;SDS011;24370;51.986;4.666;2022-08-19T11:29:04;7.43;;;3.45;;
38615;SDS011;24370;51.986;4.666;2022-08-19T11:31:32;4.85;;;3.20;;
38615;SDS011;24370;51.986;4.666;2022-08-19T11:34:00;4.90;;;3.22;;
38615;SDS011;24370;51.986;4.666;2022-08-19T11:36:28;7.43;;;3.47;;
38615;SDS011;24370;51.986;4.666;2022-08-19T11:38:56;4.93;;;3.50;;
38615;SDS011;24370;51.986;4.666;2022-08-19T11:41:22;5.75;;;3.33;;
38615;SDS011;24370;51.986;4.666;2022-08-19T11:43:50;4.40;;;3.58;;
38615;SDS011;24370;51.986;4.666;2022-08-19T11:46:17;6.20;;;3.00;;
38615;SDS011;24370;51.986;4.666;2022-08-19T11:48:43;5.13;;;2.90;;
38615;SDS011;24370;51.986;4.666;2022-08-19T11:51:10;5.43;;;2.58;;
38615;SDS011;24370;51.986;4.666;2022-08-19T11:53:40;2.72;;;2.35;;
38615;SDS011;24370;51.986;4.666;2022-08-19T11:56:06;4.70;;;1.90;;
38615;SDS011;24370;51.986;4.666;2022-08-19T11:58:34;4.40;;;2.22;;
38615;SDS011;24370;51.986;4.666;2022-08-19T12:01:00;4.53;;;2.38;;
38615;SDS011;24370;51.986;4.666;2022-08-19T12:03:26;4.65;;;2.13;;
38615;SDS011;24370;51.986;4.666;2022-08-19T12:05:51;4.30;;;2.30;;
38615;SDS011;24370;51.986;4.666;2022-08-19T12:08:17;5.18;;;2.05;;
38615;SDS011;24370;51.986;4.666;2022-08-19T12:10:43;2.55;;;2.08;;
38615;SDS011;24370;51.986;4.666;2022-08-19T12:13:10;6.82;;;2.17;;
38615;SDS011;24370;51.986;4.666;2022-08-19T12:15:37;5.68;;;2.08;;
38615;SDS011;24370;51.986;4.666;2022-08-19T12:18:05;3.10;;;1.40;;
38615;SDS011;24370;51.986;4.666;2022-08-19T12:20:34;4.00;;;1.33;;
38615;SDS011;24370;51.986;4.666;2022-08-19T12:23:00;5.50;;;1.20;;
38615;SDS011;24370;51.986;4.666;2022-08-19T12:25:26;2.80;;;1.40;;
38615;SDS011;24370;51.986;4.666;2022-08-19T12:27:51;5.38;;;1.42;;
38615;SDS011;24370;51.986;4.666;2022-08-19T12:30:17;3.13;;;1.40;;
38615;SDS011;24370;51.986;4.666;2022-08-19T12:32:42;2.42;;;1.30;;
38615;SDS011;24370;51.986;4.666;2022-08-19T12:35:08;4.30;;;1.40;;
38615;SDS011;24370;51.986;4.666;2022-08-19T12:37:34;2.28;;;1.40;;
38615;SDS011;24370;51.986;4.666;2022-08-19T12:39:59;3.80;;;1.30;;
38615;SDS011;24370;51.986;4.666;2022-08-19T12:42:25;3.35;;;1.40;;
38615;SDS011;24370;51.986;4.666;2022-08-19T12:44:51;4.45;;;1.70;;
38615;SDS011;24370;51.986;4.666;2022-08-19T12:47:17;2.30;;;1.40;;
38615;SDS011;24370;51.986;4.666;2022-08-19T12:49:43;2.58;;;1.60;;
38615;SDS011;24370;51.986;4.666;2022-08-19T12:52:09;7.20;;;2.85;;
38615;SDS011;24370;51.986;4.666;2022-08-19T12:54:35;8.50;;;2.92;;
38615;SDS011;24370;51.986;4.666;2022-08-19T12:57:04;4.57;;;2.80;;
38615;SDS011;24370;51.986;4.666;2022-08-19T12:59:32;4.55;;;2.70;;
38615;SDS011;24370;51.986;4.666;2022-08-19T13:01:59;5.93;;;3.30;;
38615;SDS011;24370;51.986;4.666;2022-08-19T13:04:25;4.72;;;2.88;;
38615;SDS011;24370;51.986;4.666;2022-08-19T13:06:50;4.55;;;2.63;;
38615;SDS011;24370;51.986;4.666;2022-08-19T13:09:15;5.57;;;3.38;;
38615;SDS011;24370;51.986;4.666;2022-08-19T13:11:41;6.82;;;3.67;;
38615;SDS011;24370;51.986;4.666;2022-08-19T13:14:08;6.80;;;3.58;;
38615;SDS011;24370;51.986;4.666;2022-08-19T13:16:33;7.53;;;3.67;;
38615;SDS011;24370;51.986;4.666;2022-08-19T13:18:59;8.77;;;4.07;;
38615;SDS011;24370;51.986;4.666;2022-08-19T13:21:27;10.70;;;5.30;;
38615;SDS011;24370;51.986;4.666;2022-08-19T13:23:54;6.95;;;5.30;;
38615;SDS011;24370;51.986;4.666;2022-08-19T13:26:20;7.30;;;5.25;;
38615;SDS011;24370;51.986;4.666;2022-08-19T13:28:46;8.80;;;6.22;;
38615;SDS011;24370;51.986;4.666;2022-08-19T13:31:31;7.85;;;5.40;;
38615;SDS011;24370;51.986;4.666;2022-08-19T13:34:18;5.55;;;4.10;;
38615;SDS011;24370;51.986;4.666;2022-08-19T13:36:50;5.38;;;4.20;;
38615;SDS011;24370;51.986;4.666;2022-08-19T13:39:17;7.65;;;4.70;;
38615;SDS011;24370;51.986;4.666;2022-08-19T13:41:45;8.10;;;5.25;;
38615;SDS011;24370;51.986;4.666;2022-08-19T13:44:15;7.80;;;6.03;;
38615;SDS011;24370;51.986;4.666;2022-08-19T13:46:45;8.00;;;5.38;;
38615;SDS011;24370;51.986;4.666;2022-08-19T13:49:12;8.57;;;6.38;;
38615;SDS011;24370;51.986;4.666;2022-08-19T13:51:40;7.80;;;7.00;;
38615;SDS011;24370;51.986;4.666;2022-08-19T13:54:07;10.68;;;7.50;;
38615;SDS011;24370;51.986;4.666;2022-08-19T13:56:33;9.43;;;7.20;;
38615;SDS011;24370;51.986;4.666;2022-08-19T13:58:59;12.70;;;7.63;;
38615;SDS011;24370;51.986;4.666;2022-08-19T14:01:25;10.13;;;7.22;;
38615;SDS011;24370;51.986;4.666;2022-08-19T14:03:51;15.07;;;8.38;;
38615;SDS011;24370;51.986;4.666;2022-08-19T14:06:18;11.77;;;8.18;;
38615;SDS011;24370;51.986;4.666;2022-08-19T14:08:44;12.25;;;7.45;;
38615;SDS011;24370;51.986;4.666;2022-08-19T14:11:09;10.57;;;7.68;;
38615;SDS011;24370;51.986;4.666;2022-08-19T14:13:35;11.18;;;6.82;;
38615;SDS011;24370;51.986;4.666;2022-08-19T14:16:00;11.90;;;7.15;;
38615;SDS011;24370;51.986;4.666;2022-08-19T14:18:31;9.38;;;6.22;;
38615;SDS011;24370;51.986;4.666;2022-08-19T14:20:56;11.43;;;7.63;;
38615;SDS011;24370;51.986;4.666;2022-08-19T14:23:22;11.43;;;7.07;;
38615;SDS011;24370;51.986;4.666;2022-08-19T14:25:47;9.93;;;6.93;;
38615;SDS011;24370;51.986;4.666;2022-08-19T14:28:13;12.90;;;7.57;;
38615;SDS011;24370;51.986;4.666;2022-08-19T14:30:38;9.75;;;6.65;;
38615;SDS011;24370;51.986;4.666;2022-08-19T14:33:04;12.82;;;7.40;;
38615;SDS011;24370;51.986;4.666;2022-08-19T14:35:32;9.65;;;6.85;;
38615;SDS011;24370;51.986;4.666;2022-08-19T14:37:59;8.75;;;6.07;;
38615;SDS011;24370;51.986;4.666;2022-08-19T14:40:27;9.23;;;6.32;;
38615;SDS011;24370;51.986;4.666;2022-08-19T14:42:54;10.35;;;5.85;;